Time;durP1;ratioP1;P1;durP2;ratioP2;P2;SDS_P1;SDS_P2;PMS_P1;PMS_P2;Temp;Humidity;BMP_temperature;BMP_pressure;BME280_temperature;BME280_humidity;BME280_pressure;Samples;Min_cycle;Max_cycle;Signal;HPM_P1;HPM_P2
2021/10/05 00:01:32;;;;;;;2.65;1.58;;;;;;;-145.50;100.00;65435.88;4995011;28;20054;-64
2021/10/05 00:03:59;;;;;;;3.20;1.60;;;;;;;-145.50;100.00;65435.88;5001048;28;20192;-63
2021/10/05 00:06:26;;;;;;;5.97;1.65;;;;;;;-145.50;100.00;65435.88;4997313;28;20054;-64
2021/10/05 00:08:53;;;;;;;3.88;1.60;;;;;;;-145.50;100.00;65435.88;4990558;28;20073;-64
2021/10/05 00:11:19;;;;;;;7.70;2.28;;;;;;;-145.50;100.00;65435.88;4991373;28;20526;-64
2021/10/05 00:13:46;;;;;;;5.97;1.60;;;;;;;-145.50;100.00;65435.88;4997248;28;20062;-63
2021/10/05 00:16:12;;;;;;;6.80;1.77;;;;;;;-145.50;100.00;65435.88;4990345;28;20061;-63
2021/10/05 00:18:39;;;;;;;6.50;1.58;;;;;;;-145.50;100.00;65435.88;5004778;28;20088;-64
2021/10/05 00:21:06;;;;;;;6.47;2.30;;;;;;;-145.50;100.00;65435.88;5002116;28;20057;-64
2021/10/05 00:23:32;;;;;;;3.38;1.40;;;;;;;-145.50;100.00;65435.88;4986608;28;20058;-64
2021/10/05 00:25:59;;;;;;;4.38;1.60;;;;;;;-145.50;100.00;65435.88;4996577;28;20058;-64
2021/10/05 00:28:26;;;;;;;2.47;1.40;;;;;;;-145.50;100.00;65435.88;4999048;28;20057;-64
2021/10/05 00:30:52;;;;;;;6.93;2.13;;;;;;;-145.50;100.00;65435.88;4994040;28;20057;-64
2021/10/05 00:33:18;;;;;;;3.83;1.80;;;;;;;-145.50;100.00;65435.88;4999220;28;20050;-64
2021/10/05 00:35:45;;;;;;;5.25;1.85;;;;;;;-145.50;100.00;65435.88;4999559;28;20142;-64
2021/10/05 00:38:11;;;;;;;4.88;1.75;;;;;;;-145.50;100.00;65435.88;4990147;28;20064;-66
2021/10/05 00:40:39;;;;;;;5.68;1.45;;;;;;;-145.50;100.00;65435.88;4991548;28;20481;-64
2021/10/05 00:43:08;;;;;;;7.45;1.70;;;;;;;-145.50;100.00;65435.88;5004609;28;20053;-64
2021/10/05 00:45:35;;;;;;;4.78;1.83;;;;;;;-145.50;100.00;65435.88;4992679;28;20050;-64
2021/10/05 00:48:02;;;;;;;9.37;2.13;;;;;;;-145.50;100.00;65435.88;4992229;28;20054;-64
2021/10/05 00:50:29;;;;;;;2.92;1.45;;;;;;;-145.50;100.00;65435.88;4988182;28;20046;-62
2021/10/05 00:52:56;;;;;;;3.90;1.40;;;;;;;-145.50;100.00;65435.88;4994996;28;20058;-64
2021/10/05 00:55:23;;;;;;;6.07;1.83;;;;;;;-145.50;100.00;65435.88;4997378;28;20042;-64
2021/10/05 00:57:51;;;;;;;5.70;1.95;;;;;;;-145.50;100.00;65435.88;4987267;28;20056;-63
2021/10/05 01:00:19;;;;;;;7.55;1.63;;;;;;;-145.50;100.00;65435.88;4993603;28;20049;-63
2021/10/05 01:02:46;;;;;;;3.33;1.60;;;;;;;-145.50;100.00;65435.88;4993898;28;20491;-64
2021/10/05 01:05:13;;;;;;;4.53;1.65;;;;;;;-145.50;100.00;65435.88;4997135;28;20416;-64
2021/10/05 01:07:40;;;;;;;5.47;1.85;;;;;;;-145.50;100.00;65435.88;4995357;28;20086;-64
2021/10/05 01:10:07;;;;;;;3.83;1.48;;;;;;;-145.50;100.00;65435.88;5003908;28;20057;-64
2021/10/05 01:12:34;;;;;;;8.20;1.95;;;;;;;-145.50;100.00;65435.88;5006381;28;20535;-64
2021/10/05 01:15:01;;;;;;;6.33;1.50;;;;;;;-145.50;100.00;65435.88;4985468;28;20057;-64
2021/10/05 01:17:27;;;;;;;5.22;1.80;;;;;;;-145.50;100.00;65435.88;5010864;28;20053;-63
2021/10/05 01:19:53;;;;;;;3.28;1.30;;;;;;;-145.50;100.00;65435.88;4992204;28;20491;-64
2021/10/05 01:22:20;;;;;;;7.63;1.70;;;;;;;-145.50;100.00;65435.88;5002305;28;20049;-64
2021/10/05 01:24:46;;;;;;;4.78;1.42;;;;;;;-145.50;100.00;65435.88;4991926;28;20061;-64
2021/10/05 01:27:13;;;;;;;2.97;1.58;;;;;;;-145.50;100.00;65435.88;5003179;28;20046;-64
2021/10/05 01:29:39;;;;;;;7.20;1.80;;;;;;;-145.50;100.00;65435.88;4992844;28;20046;-64
2021/10/05 01:32:06;;;;;;;5.93;1.55;;;;;;;-145.50;100.00;65435.88;5000660;28;20057;-64
2021/10/05 01:34:33;;;;;;;4.55;1.45;;;;;;;-145.50;100.00;65435.88;4998212;28;20058;-64
2021/10/05 01:37:00;;;;;;;5.43;1.27;;;;;;;-145.50;100.00;65435.88;4985796;28;20053;-64
2021/10/05 01:39:31;;;;;;;3.47;1.33;;;;;;;-145.50;100.00;65435.88;4995898;28;20045;-64
2021/10/05 01:42:04;;;;;;;4.25;1.70;;;;;;;-145.50;100.00;65435.88;4996807;28;20061;-63
2021/10/05 01:44:32;;;;;;;5.60;1.70;;;;;;;-145.50;100.00;65435.88;4992289;28;20061;-64
2021/10/05 01:47:01;;;;;;;3.58;1.50;;;;;;;-145.50;100.00;65435.88;4991797;28;20699;-63
2021/10/05 01:49:27;;;;;;;4.78;1.67;;;;;;;-145.50;100.00;65435.88;4994025;28;20052;-64
2021/10/05 01:51:54;;;;;;;4.57;1.80;;;;;;;-145.50;100.00;65435.88;5000203;28;20046;-64
2021/10/05 01:54:21;;;;;;;3.65;1.65;;;;;;;-145.50;100.00;65435.88;4990974;28;20060;-64
2021/10/05 01:56:48;;;;;;;3.10;1.40;;;;;;;-145.50;100.00;65435.88;4990965;28;20060;-64
2021/10/05 01:59:15;;;;;;;6.32;1.80;;;;;;;-145.50;100.00;65435.88;4985589;28;20062;-64
2021/10/05 02:01:41;;;;;;;2.58;1.48;;;;;;;-145.50;100.00;65435.88;5007095;28;20065;-64
2021/10/05 02:04:10;;;;;;;4.20;1.65;;;;;;;-145.50;100.00;65435.88;4989234;28;20052;-64
2021/10/05 02:06:40;;;;;;;8.88;1.75;;;;;;;-145.50;100.00;65435.88;4995238;28;20566;-64
2021/10/05 02:09:08;;;;;;;5.43;1.25;;;;;;;-145.50;100.00;65435.88;4997172;28;20042;-63
2021/10/05 02:11:35;;;;;;;;;;;;;;;-145.50;100.00;65435.88;4993804;28;20079;-64
2021/10/05 02:14:03;;;;;;;4.05;1.70;;;;;;;-145.50;100.00;65435.88;4998487;28;19938;-64
2021/10/05 02:16:30;;;;;;;9.27;1.92;;;;;;;-145.50;100.00;65435.88;4998770;28;20053;-63
2021/10/05 02:18:57;;;;;;;5.53;1.60;;;;;;;-145.50;100.00;65435.88;4998050;28;20054;-63
2021/10/05 02:21:23;;;;;;;3.78;1.50;;;;;;;-145.50;100.00;65435.88;4991240;28;20512;-63
2021/10/05 02:26:36;;;;;;;6.35;1.63;;;;;;;-145.50;100.00;65435.88;4997422;28;20054;-64
2021/10/05 02:29:03;;;;;;;4.40;1.52;;;;;;;-145.50;100.00;65435.88;4988972;28;20061;-63
2021/10/05 02:31:30;;;;;;;4.22;1.80;;;;;;;-145.50;100.00;65435.88;4995462;28;20069;-64
2021/10/05 02:33:57;;;;;;;5.20;1.73;;;;;;;-145.50;100.00;65435.88;4993991;28;20072;-63
2021/10/05 02:36:23;;;;;;;3.72;1.75;;;;;;;-145.50;100.00;65435.88;4993522;28;20046;-64
2021/10/05 02:38:50;;;;;;;4.15;1.50;;;;;;;-145.50;100.00;65435.88;4986508;28;20058;-64
2021/10/05 02:41:17;;;;;;;3.20;1.90;;;;;;;-145.50;100.00;65435.88;4994920;28;20069;-64
2021/10/05 02:43:44;;;;;;;4.95;1.67;;;;;;;-145.50;100.00;65435.88;5000331;28;20479;-63
2021/10/05 02:46:10;;;;;;;12.60;3.35;;;;;;;-145.50;100.00;65435.88;4988714;28;20516;-63
2021/10/05 02:48:37;;;;;;;3.92;1.48;;;;;;;-145.50;100.00;65435.88;4994228;28;20068;-63
2021/10/05 02:51:03;;;;;;;3.38;1.70;;;;;;;-145.50;100.00;65435.88;4983170;28;20404;-63
2021/10/05 02:53:30;;;;;;;5.55;1.85;;;;;;;-145.50;100.00;65435.88;4992398;28;20050;-63
2021/10/05 02:55:56;;;;;;;2.25;1.50;;;;;;;-145.50;100.00;65435.88;4987124;28;20069;-63
2021/10/05 02:58:23;;;;;;;4.20;1.85;;;;;;;-145.50;100.00;65435.88;5002399;28;20061;-63
2021/10/05 03:00:49;;;;;;;4.72;2.08;;;;;;;-145.50;100.00;65435.88;4994122;28;20041;-62
2021/10/05 03:03:16;;;;;;;4.43;1.80;;;;;;;-145.50;100.00;65435.88;4980747;28;20050;-63
2021/10/05 03:05:42;;;;;;;4.13;1.90;;;;;;;-145.50;100.00;65435.88;4992620;28;20060;-63
2021/10/05 03:08:09;;;;;;;4.53;1.70;;;;;;;-145.50;100.00;65435.88;4990105;28;20057;-63
2021/10/05 03:10:36;;;;;;;4.13;1.83;;;;;;;-145.50;100.00;65435.88;4994447;28;20056;-63
2021/10/05 03:13:04;;;;;;;6.82;2.08;;;;;;;-145.50;100.00;65435.88;4986242;28;20061;-64
2021/10/05 03:15:31;;;;;;;2.35;1.50;;;;;;;-145.50;100.00;65435.88;4991731;28;20054;-63
2021/10/05 03:17:58;;;;;;;6.05;1.90;;;;;;;-145.50;100.00;65435.88;4986578;28;20069;-63
2021/10/05 03:20:24;;;;;;;2.95;1.60;;;;;;;-145.50;100.00;65435.88;4986511;28;20050;-63
2021/10/05 03:22:51;;;;;;;6.75;1.88;;;;;;;-145.50;100.00;65435.88;5005125;28;20054;-63
2021/10/05 03:25:18;;;;;;;3.80;1.80;;;;;;;-145.50;100.00;65435.88;4988137;28;21019;-63
2021/10/05 03:27:47;;;;;;;5.00;1.90;;;;;;;-145.50;100.00;65435.88;5002451;28;20948;-62
2021/10/05 03:30:14;;;;;;;4.72;2.00;;;;;;;-145.50;100.00;65435.88;4986670;28;20042;-63
2021/10/05 03:32:40;;;;;;;2.70;1.65;;;;;;;-145.50;100.00;65435.88;4986582;28;20043;-63
2021/10/05 03:35:07;;;;;;;7.53;1.90;;;;;;;-145.50;100.00;65435.88;4990903;28;20058;-63
2021/10/05 03:37:33;;;;;;;6.63;2.00;;;;;;;-145.50;100.00;65435.88;4985996;28;20058;-62
2021/10/05 03:40:00;;;;;;;4.32;1.75;;;;;;;-145.50;100.00;65435.88;4994043;28;20046;-62
2021/10/05 03:42:27;;;;;;;6.07;2.10;;;;;;;-145.50;100.00;65435.88;4988301;28;20061;-63
2021/10/05 03:44:54;;;;;;;4.03;1.92;;;;;;;-145.50;100.00;65435.88;4994880;28;20057;-63
2021/10/05 03:47:20;;;;;;;5.38;2.28;;;;;;;-145.50;100.00;65435.88;4989906;28;20149;-62
2021/10/05 03:49:47;;;;;;;3.75;1.83;;;;;;;-145.50;100.00;65435.88;4993733;28;20037;-63
2021/10/05 03:52:13;;;;;;;3.15;1.85;;;;;;;-145.50;100.00;65435.88;4989507;28;20061;-63
2021/10/05 03:54:40;;;;;;;3.38;2.20;;;;;;;-145.50;100.00;65435.88;4981412;28;20066;-62
2021/10/05 03:57:06;;;;;;;3.97;1.92;;;;;;;-145.50;100.00;65435.88;4987531;28;20170;-62
2021/10/05 03:59:33;;;;;;;5.63;2.30;;;;;;;-145.50;100.00;65435.88;4988445;28;20057;-62
2021/10/05 04:01:59;;;;;;;6.55;2.35;;;;;;;-145.50;100.00;65435.88;4992996;28;20057;-62
2021/10/05 04:04:26;;;;;;;5.63;2.50;;;;;;;-145.50;100.00;65435.88;4989744;28;20056;-63
2021/10/05 04:06:52;;;;;;;3.75;2.28;;;;;;;-145.50;100.00;65435.88;4989820;28;20057;-63
2021/10/05 04:09:19;;;;;;;9.27;2.35;;;;;;;-145.50;100.00;65435.88;4990667;28;20062;-63
2021/10/05 04:11:45;;;;;;;3.40;2.20;;;;;;;-145.50;100.00;65435.88;4984342;28;20054;-63
2021/10/05 04:14:11;;;;;;;5.07;2.70;;;;;;;-145.50;100.00;65435.88;4993829;28;20402;-63
2021/10/05 04:16:38;;;;;;;6.00;2.40;;;;;;;-145.50;100.00;65435.88;4989065;28;20058;-63
2021/10/05 04:19:05;;;;;;;3.42;2.40;;;;;;;-145.50;100.00;65435.88;4994079;28;20050;-62
2021/10/05 04:21:31;;;;;;;7.15;2.47;;;;;;;-145.50;100.00;65435.88;4981530;28;20051;-63
2021/10/05 04:23:58;;;;;;;4.10;2.30;;;;;;;-145.50;100.00;65435.88;4991190;28;20054;-62
2021/10/05 04:26:24;;;;;;;5.00;2.25;;;;;;;-145.50;100.00;65435.88;4991069;28;20062;-63
2021/10/05 04:28:51;;;;;;;5.82;2.55;;;;;;;-145.50;100.00;65435.88;4989051;28;20082;-63
2021/10/05 04:31:17;;;;;;;3.95;2.47;;;;;;;-145.50;100.00;65435.88;4991109;28;20385;-63
2021/10/05 04:33:44;;;;;;;5.40;2.58;;;;;;;-145.50;100.00;65435.88;4988364;28;20045;-62
2021/10/05 04:36:10;;;;;;;4.95;2.55;;;;;;;-145.50;100.00;65435.88;4987205;28;20055;-62
2021/10/05 04:38:36;;;;;;;5.10;2.50;;;;;;;-145.50;100.00;65435.88;4986244;28;20061;-63
2021/10/05 04:41:04;;;;;;;4.47;2.10;;;;;;;-145.50;100.00;65435.88;4996685;28;20042;-63
2021/10/05 04:43:30;;;;;;;5.43;2.42;;;;;;;-145.50;100.00;65435.88;4996442;28;20058;-62
2021/10/05 04:45:56;;;;;;;4.53;2.80;;;;;;;-145.50;100.00;65435.88;4991205;28;20054;-63
2021/10/05 04:48:23;;;;;;;7.10;3.00;;;;;;;-145.50;100.00;65435.88;4998002;28;20065;-63
2021/10/05 04:50:49;;;;;;;6.72;3.08;;;;;;;-145.50;100.00;65435.88;4984735;28;20061;-63
2021/10/05 04:53:16;;;;;;;5.35;2.88;;;;;;;-145.50;100.00;65435.88;4997677;28;20042;-63
2021/10/05 04:55:44;;;;;;;6.20;2.45;;;;;;;-145.50;100.00;65435.88;4993438;28;20054;-62
2021/10/05 04:58:11;;;;;;;4.05;2.63;;;;;;;-145.50;100.00;65435.88;4995344;28;20054;-63
2021/10/05 05:00:38;;;;;;;7.25;2.80;;;;;;;-145.50;100.00;65435.88;5001062;28;20505;-62
2021/10/05 05:03:05;;;;;;;7.75;3.17;;;;;;;-145.50;100.00;65435.88;4986813;28;20517;-61
2021/10/05 05:05:31;;;;;;;6.80;3.00;;;;;;;-145.50;100.00;65435.88;5002509;28;20532;-63
2021/10/05 05:08:02;;;;;;;6.15;2.75;;;;;;;-145.50;100.00;65435.88;4991184;28;20092;-62
2021/10/05 05:10:29;;;;;;;8.02;2.85;;;;;;;-145.50;100.00;65435.88;4998447;28;20046;-62
2021/10/05 05:12:56;;;;;;;6.10;3.47;;;;;;;-145.50;100.00;65435.88;4995419;28;20410;-64
2021/10/05 05:15:24;;;;;;;8.18;3.47;;;;;;;-145.50;100.00;65435.88;5001918;28;20054;-63
2021/10/05 05:17:50;;;;;;;5.18;3.40;;;;;;;-145.50;100.00;65435.88;4995848;28;20058;-63
2021/10/05 05:20:17;;;;;;;5.13;3.20;;;;;;;-145.50;100.00;65435.88;4988405;28;20046;-63
2021/10/05 05:22:45;;;;;;;5.18;3.30;;;;;;;-145.50;100.00;65435.88;4996859;28;20050;-63
2021/10/05 05:25:12;;;;;;;9.15;3.97;;;;;;;-145.50;100.00;65435.88;4989502;28;20055;-63
2021/10/05 05:27:38;;;;;;;6.38;3.33;;;;;;;-145.50;100.00;65435.88;4994496;28;20049;-70
2021/10/05 05:30:06;;;;;;;7.00;3.55;;;;;;;-145.50;100.00;65435.88;4999165;28;20046;-63
2021/10/05 05:32:32;;;;;;;6.60;3.47;;;;;;;-145.50;100.00;65435.88;4992968;28;20058;-63
2021/10/05 05:34:59;;;;;;;8.07;4.03;;;;;;;-145.50;100.00;65435.88;4999883;28;20403;-63
2021/10/05 05:37:26;;;;;;;4.43;3.00;;;;;;;-145.50;100.00;65435.88;4998761;28;20113;-62
2021/10/05 05:39:52;;;;;;;6.10;3.22;;;;;;;-145.50;100.00;65435.88;4996414;28;20269;-63
2021/10/05 05:42:19;;;;;;;5.32;2.80;;;;;;;-145.50;100.00;65435.88;4987586;28;20430;-63
2021/10/05 05:44:45;;;;;;;5.78;3.17;;;;;;;-145.50;100.00;65435.88;4992116;28;20057;-63
2021/10/05 05:47:12;;;;;;;5.47;3.17;;;;;;;-145.50;100.00;65435.88;4990151;28;20061;-63
2021/10/05 05:49:38;;;;;;;5.30;3.35;;;;;;;-145.50;100.00;65435.88;4996150;28;20081;-63
2021/10/05 05:52:05;;;;;;;9.00;4.05;;;;;;;-145.50;100.00;65435.88;5002743;28;20052;-63
2021/10/05 05:54:31;;;;;;;7.95;4.38;;;;;;;-145.50;100.00;65435.88;4983712;28;20425;-63
2021/10/05 05:56:58;;;;;;;7.72;4.20;;;;;;;-145.50;100.00;65435.88;5002314;28;20058;-63
2021/10/05 05:59:24;;;;;;;7.75;3.72;;;;;;;-145.50;100.00;65435.88;4989474;28;20076;-62
2021/10/05 06:01:51;;;;;;;8.77;4.35;;;;;;;-145.50;100.00;65435.88;5003152;28;20057;-62
2021/10/05 06:04:17;;;;;;;10.05;6.00;;;;;;;-145.50;100.00;65435.88;4989973;28;20054;-63
2021/10/05 06:06:44;;;;;;;8.80;5.15;;;;;;;-145.50;100.00;65435.88;4988648;28;20124;-63
2021/10/05 06:09:11;;;;;;;8.02;5.15;;;;;;;-145.50;100.00;65435.88;4999537;28;20129;-63
2021/10/05 06:11:40;;;;;;;7.15;5.18;;;;;;;-145.50;100.00;65435.88;4988529;28;20050;-63
2021/10/05 06:14:07;;;;;;;8.93;4.53;;;;;;;-145.50;100.00;65435.88;4999865;28;20627;-63
2021/10/05 06:16:33;;;;;;;10.27;5.55;;;;;;;-145.50;100.00;65435.88;4989394;28;20385;-63
2021/10/05 06:19:04;;;;;;;8.45;5.35;;;;;;;-145.50;100.00;65435.88;4992189;28;20486;-63
2021/10/05 06:21:31;;;;;;;7.57;5.35;;;;;;;-145.50;100.00;65435.88;4981734;28;20507;-64
2021/10/05 06:23:57;;;;;;;9.35;5.30;;;;;;;-145.50;100.00;65435.88;4992297;28;20053;-62
2021/10/05 06:26:24;;;;;;;11.18;5.68;;;;;;;-145.50;100.00;65435.88;4994540;28;20051;-63
2021/10/05 06:28:50;;;;;;;9.35;5.32;;;;;;;-145.50;100.00;65435.88;4989812;28;20068;-63
2021/10/05 06:31:16;;;;;;;13.55;6.22;;;;;;;-145.50;100.00;65435.88;4993126;28;20053;-63
2021/10/05 06:33:43;;;;;;;8.77;5.38;;;;;;;-145.50;100.00;65435.88;4984629;28;20491;-63
2021/10/05 06:36:09;;;;;;;10.50;6.50;;;;;;;-145.50;100.00;65435.88;4987813;28;20054;-63
2021/10/05 06:38:36;;;;;;;9.85;6.00;;;;;;;-145.50;100.00;65435.88;4987337;28;20069;-63
2021/10/05 06:41:03;;;;;;;9.23;5.72;;;;;;;-145.50;100.00;65435.88;4999304;28;20042;-61
2021/10/05 06:43:29;;;;;;;10.30;6.32;;;;;;;-145.50;100.00;65435.88;4997509;28;20058;-63
2021/10/05 06:45:55;;;;;;;10.02;6.28;;;;;;;-145.50;100.00;65435.88;4998924;28;20137;-63
2021/10/05 06:48:22;;;;;;;11.98;5.15;;;;;;;-145.50;100.00;65435.88;4992206;28;20100;-63
2021/10/05 06:50:48;;;;;;;8.80;5.32;;;;;;;-145.50;100.00;65435.88;4980724;28;20049;-63
2021/10/05 06:53:18;;;;;;;9.50;5.72;;;;;;;-145.50;100.00;65435.88;4994989;28;20056;-63
2021/10/05 06:55:46;;;;;;;8.25;5.38;;;;;;;-145.50;100.00;65435.88;4985519;28;20046;-63
2021/10/05 06:58:13;;;;;;;11.05;5.75;;;;;;;-145.50;100.00;65435.88;4997844;28;20381;-63
2021/10/05 07:00:40;;;;;;;8.48;5.25;;;;;;;-145.50;100.00;65435.88;4990187;28;20054;-63
2021/10/05 07:03:07;;;;;;;9.40;5.90;;;;;;;-145.50;100.00;65435.88;4984592;28;20054;-63
2021/10/05 07:05:33;;;;;;;8.70;5.97;;;;;;;-145.50;100.00;65435.88;4984650;28;20419;-63
2021/10/05 07:08:04;;;;;;;13.85;5.90;;;;;;;-145.50;100.00;65435.88;4991624;28;20050;-63
2021/10/05 07:10:31;;;;;;;10.05;5.63;;;;;;;-145.50;100.00;65435.88;5009054;28;20470;-63
2021/10/05 07:12:58;;;;;;;8.95;6.28;;;;;;;-145.50;100.00;65435.88;4990074;28;20046;-63
2021/10/05 07:15:25;;;;;;;8.23;5.38;;;;;;;-145.50;100.00;65435.88;4988066;28;20057;-63
2021/10/05 07:17:55;;;;;;;12.10;6.32;;;;;;;-145.50;100.00;65435.88;4989016;28;20386;-63
2021/10/05 07:20:26;;;;;;;9.43;5.43;;;;;;;-145.50;100.00;65435.88;4982045;28;20550;-63
2021/10/05 07:22:53;;;;;;;10.18;6.53;;;;;;;-145.50;100.00;65435.88;4997070;28;20450;-63
2021/10/05 07:25:20;;;;;;;8.63;5.63;;;;;;;-145.50;100.00;65435.88;4984231;28;20050;-63
2021/10/05 07:27:50;;;;;;;11.65;6.35;;;;;;;-145.50;100.00;65435.88;4995436;28;20050;-64
2021/10/05 07:30:23;;;;;;;10.43;6.13;;;;;;;-145.50;100.00;65435.88;4980386;28;20085;-63
2021/10/05 07:32:55;;;;;;;9.77;5.07;;;;;;;-145.50;100.00;65435.88;4990817;28;20065;-63
2021/10/05 07:35:23;;;;;;;10.32;4.55;;;;;;;-145.50;100.00;65435.88;4987276;28;20053;-63
2021/10/05 07:37:49;;;;;;;7.82;5.25;;;;;;;-145.50;100.00;65435.88;4993988;28;20061;-63
2021/10/05 07:40:18;;;;;;;8.30;5.05;;;;;;;-145.50;100.00;65435.88;4991383;28;20050;-63
2021/10/05 07:42:44;;;;;;;;;;;;;;;-145.50;100.00;65435.88;4986712;28;20507;-64
2021/10/05 07:45:11;;;;;;;6.70;4.13;;;;;;;-145.50;100.00;65435.88;4996166;28;19926;-64
2021/10/05 07:47:37;;;;;;;8.43;5.15;;;;;;;-145.50;100.00;65435.88;4982574;28;20046;-63
2021/10/05 07:50:05;;;;;;;7.97;5.38;;;;;;;-145.50;100.00;65435.88;4992791;28;20053;-64
2021/10/05 07:52:32;;;;;;;7.53;4.95;;;;;;;-145.50;100.00;65435.88;4989599;28;20046;-63
2021/10/05 07:54:59;;;;;;;9.52;5.30;;;;;;;-145.50;100.00;65435.88;4991694;28;20072;-63
2021/10/05 07:57:25;;;;;;;8.07;5.20;;;;;;;-145.50;100.00;65435.88;4993617;28;20058;-62
2021/10/05 07:59:52;;;;;;;8.13;4.50;;;;;;;-145.50;100.00;65435.88;4991041;28;20049;-63
2021/10/05 08:02:19;;;;;;;8.73;5.35;;;;;;;-145.50;100.00;65435.88;4992229;28;20517;-63
2021/10/05 08:04:45;;;;;;;8.23;5.38;;;;;;;-145.50;100.00;65435.88;4992965;28;20057;-62
2021/10/05 08:07:12;;;;;;;9.02;5.30;;;;;;;-145.50;100.00;65435.88;4994677;28;20050;-63
2021/10/05 08:09:38;;;;;;;9.70;4.78;;;;;;;-145.50;100.00;65435.88;5003168;28;20062;-63
2021/10/05 08:12:05;;;;;;;9.23;4.85;;;;;;;-145.50;100.00;65435.88;4988824;28;20058;-63
2021/10/05 08:14:32;;;;;;;10.68;6.13;;;;;;;-145.50;100.00;65435.88;4992684;28;20064;-63
2021/10/05 08:16:59;;;;;;;8.00;4.70;;;;;;;-145.50;100.00;65435.88;4990833;28;20443;-62
2021/10/05 08:19:26;;;;;;;7.43;4.40;;;;;;;-145.50;100.00;65435.88;5000087;28;20050;-63
2021/10/05 08:21:53;;;;;;;7.10;4.60;;;;;;;-145.50;100.00;65435.88;4989237;28;20061;-63
2021/10/05 08:24:20;;;;;;;11.88;5.13;;;;;;;-145.50;100.00;65435.88;4992707;28;20058;-63
2021/10/05 08:26:47;;;;;;;7.32;3.88;;;;;;;-145.50;100.00;65435.88;4993087;28;20050;-64
2021/10/05 08:29:13;;;;;;;7.25;3.92;;;;;;;-145.50;100.00;65435.88;5002390;28;20126;-63
2021/10/05 08:31:40;;;;;;;8.05;4.45;;;;;;;-145.50;100.00;65435.88;5004130;28;20042;-63
2021/10/05 08:34:06;;;;;;;7.00;4.18;;;;;;;-145.50;100.00;65435.88;4998654;28;20050;-64
2021/10/05 08:36:33;;;;;;;6.57;4.03;;;;;;;-145.50;100.00;65435.88;4999315;28;20050;-63
2021/10/05 08:38:59;;;;;;;8.15;4.40;;;;;;;-145.50;100.00;65435.88;4985198;28;20057;-63
2021/10/05 08:41:26;;;;;;;8.63;3.83;;;;;;;-145.50;100.00;65435.88;5003770;28;20137;-63
2021/10/05 08:43:53;;;;;;;9.10;4.07;;;;;;;-145.50;100.00;65435.88;4997730;28;20050;-63
2021/10/05 08:46:19;;;;;;;7.28;4.00;;;;;;;-145.50;100.00;65435.88;4994648;28;20058;-63
2021/10/05 08:48:46;;;;;;;9.60;4.28;;;;;;;-145.50;100.00;65435.88;4995690;28;20054;-63
2021/10/05 08:51:13;;;;;;;8.00;4.03;;;;;;;-145.50;100.00;65435.88;4991656;28;20043;-63
2021/10/05 08:53:40;;;;;;;5.93;3.88;;;;;;;-145.50;100.00;65435.88;4997433;28;20284;-63
2021/10/05 08:56:08;;;;;;;6.43;4.35;;;;;;;-145.50;100.00;65435.88;4987579;28;20096;-64
2021/10/05 08:58:36;;;;;;;6.97;3.67;;;;;;;-145.50;100.00;65435.88;4997289;28;20041;-64
2021/10/05 09:01:14;;;;;;;7.25;3.90;;;;;;;-145.50;100.00;65435.88;4986243;28;20077;-63
2021/10/05 09:03:52;;;;;;;9.85;3.30;;;;;;;-145.50;100.00;65435.88;4995255;28;20507;-64
2021/10/05 09:06:21;;;;;;;6.95;3.70;;;;;;;-145.50;100.00;65435.88;4990657;28;20062;-64
2021/10/05 09:08:49;;;;;;;5.15;2.97;;;;;;;-145.50;100.00;65435.88;4987702;28;20050;-64
2021/10/05 09:11:17;;;;;;;9.57;3.60;;;;;;;-145.50;100.00;65435.88;5009662;28;20766;-63
2021/10/05 09:13:47;;;;;;;7.32;3.00;;;;;;;-145.50;100.00;65435.88;4992489;28;20142;-64
2021/10/05 09:16:25;;;;;;;4.57;2.83;;;;;;;-145.50;100.00;65435.88;4992072;28;20046;-64
2021/10/05 09:19:05;;;;;;;6.82;2.90;;;;;;;-145.50;100.00;65435.88;4990824;28;20042;-63
2021/10/05 09:21:35;;;;;;;4.30;2.60;;;;;;;-145.50;100.00;65435.88;4989089;28;20054;-63
2021/10/05 09:24:12;;;;;;;5.10;2.92;;;;;;;-145.50;100.00;65435.88;4992134;28;20050;-63
2021/10/05 09:26:51;;;;;;;4.93;2.70;;;;;;;-145.50;100.00;65435.88;5003287;28;20042;-63
2021/10/05 09:29:23;;;;;;;6.65;3.25;;;;;;;-145.50;100.00;65435.88;4991688;28;20061;-63
2021/10/05 09:31:50;;;;;;;5.60;2.50;;;;;;;-145.50;100.00;65435.88;4995875;28;20046;-63
2021/10/05 09:34:18;;;;;;;4.03;2.17;;;;;;;-145.50;100.00;65435.88;4995575;28;20081;-63
2021/10/05 09:36:45;;;;;;;5.55;2.38;;;;;;;-145.50;100.00;65435.88;4987422;28;20055;-64
2021/10/05 09:39:12;;;;;;;2.83;1.80;;;;;;;-145.50;100.00;65435.88;4993297;28;20054;-63
2021/10/05 09:41:38;;;;;;;5.25;3.05;;;;;;;-145.50;100.00;65435.88;4987831;28;20042;-63
2021/10/05 09:44:07;;;;;;;4.75;1.98;;;;;;;-145.50;100.00;65435.88;4994997;28;20050;-63
2021/10/05 09:46:33;;;;;;;;;;;;;;;-145.50;100.00;65435.88;4991310;28;20391;-63
2021/10/05 09:49:07;;;;;;;4.05;1.92;;;;;;;-145.50;100.00;65435.88;4988733;28;20482;-63
2021/10/05 09:51:34;;;;;;;5.25;2.05;;;;;;;-145.50;100.00;65435.88;4994722;28;20542;-63
2021/10/05 09:54:01;;;;;;;4.50;2.15;;;;;;;-145.50;100.00;65435.88;4987653;28;20046;-63
2021/10/05 09:56:30;;;;;;;4.35;1.75;;;;;;;-145.50;100.00;65435.88;4996452;28;20132;-63
2021/10/05 09:58:58;;;;;;;5.63;2.10;;;;;;;-145.50;100.00;65435.88;4987652;28;20060;-64
2021/10/05 10:01:26;;;;;;;6.83;2.20;;;;;;;-145.50;100.00;65435.88;4991390;28;20418;-63
2021/10/05 10:03:53;;;;;;;4.18;1.95;;;;;;;-145.50;100.00;65435.88;4982239;28;20104;-64
2021/10/05 10:06:20;;;;;;;7.43;1.90;;;;;;;-145.50;100.00;65435.88;4992985;28;20521;-63
2021/10/05 10:08:53;;;;;;;5.50;1.60;;;;;;;-145.50;100.00;65435.88;5004833;28;20056;-63
2021/10/05 10:11:20;;;;;;;3.95;1.58;;;;;;;-145.50;100.00;65435.88;4989379;28;20072;-63
2021/10/05 10:13:48;;;;;;;6.95;1.83;;;;;;;-145.50;100.00;65435.88;4990534;28;20380;-64
2021/10/05 10:16:16;;;;;;;6.35;1.73;;;;;;;-145.50;100.00;65435.88;4981446;28;20542;-64
2021/10/05 10:18:53;;;;;;;4.32;1.75;;;;;;;-145.50;100.00;65435.88;5007799;28;20119;-64
2021/10/05 10:21:26;;;;;;;4.07;1.65;;;;;;;-145.50;100.00;65435.88;4987760;28;20054;-64
2021/10/05 10:24:09;;;;;;;4.72;1.70;;;;;;;-145.50;100.00;65435.88;4997422;28;20054;-64
2021/10/05 10:26:40;;;;;;;3.63;1.40;;;;;;;-145.50;100.00;65435.88;4989251;28;20403;-64
2021/10/05 10:29:29;;;;;;;5.20;1.60;;;;;;;-145.50;100.00;65435.88;4991324;28;20559;-64
2021/10/05 10:31:56;;;;;;;5.30;1.70;;;;;;;-145.50;100.00;65435.88;4991983;28;20042;-64
2021/10/05 10:34:23;;;;;;;5.15;1.65;;;;;;;-145.50;100.00;65435.88;4987130;28;20050;-64
2021/10/05 10:36:50;;;;;;;4.05;1.73;;;;;;;-145.50;100.00;65435.88;4999774;28;20060;-64
2021/10/05 10:39:24;;;;;;;5.25;1.70;;;;;;;-145.50;100.00;65435.88;4987648;28;20049;-64
2021/10/05 10:41:53;;;;;;;3.47;1.42;;;;;;;-145.50;100.00;65435.88;4990763;28;20076;-64
2021/10/05 10:44:32;;;;;;;4.88;1.80;;;;;;;-145.50;100.00;65435.88;4983278;28;20070;-63
2021/10/05 10:47:15;;;;;;;4.55;1.70;;;;;;;-145.50;100.00;65435.88;4991728;28;20046;-64
2021/10/05 10:50:00;;;;;;;3.95;1.73;;;;;;;-145.50;100.00;65435.88;4990675;28;20056;-64
2021/10/05 10:52:33;;;;;;;6.05;1.85;;;;;;;-145.50;100.00;65435.88;4990915;28;20046;-64
2021/10/05 10:55:01;;;;;;;4.30;2.10;;;;;;;-145.50;100.00;65435.88;4992388;28;20490;-63
2021/10/05 10:57:55;;;;;;;5.25;1.50;;;;;;;-145.50;100.00;65435.88;4992822;28;20049;-63
2021/10/05 11:00:32;;;;;;;5.75;2.15;;;;;;;-145.50;100.00;65435.88;4995677;28;20050;-63
2021/10/05 11:03:04;;;;;;;6.28;1.63;;;;;;;-145.50;100.00;65435.88;4983001;28;20073;-64
2021/10/05 11:05:35;;;;;;;3.67;1.50;;;;;;;-145.50;100.00;65435.88;4994839;28;20051;-63
2021/10/05 11:08:12;;;;;;;5.00;1.40;;;;;;;-145.50;100.00;65435.88;4986192;28;20062;-64
2021/10/05 11:10:39;;;;;;;5.18;1.77;;;;;;;-145.50;100.00;65435.88;4988958;28;20085;-64
2021/10/05 11:13:08;;;;;;;3.40;1.45;;;;;;;-145.50;100.00;65435.88;4987555;28;20054;-64
2021/10/05 11:15:39;;;;;;;4.53;1.83;;;;;;;-145.50;100.00;65435.88;4992240;28;20054;-64